Dekalb, IL (60115)

7:04 AM CDT on August 24, 2016 (GMT -0500)
Maplewood | | Change Station

Elev 902 ft 41.93 °N, 88.74 °W | Updated 9 minutes ago

Rain
Rain
69.2 °F
Feels Like 69.2 °F
N
0.0
Wind Variable Wind from SE
Gusts 4.0 mph

Today
High -- | Low -- °F
--% Chance of Precip.
Yesterday
High -- | Low -- °F
Precip. -- in
Pressure 30.00 in
Visibility 4.0 miles
Clouds Mostly Cloudy 600 ft
Overcast 1200 ft
Dew Point 68 °F
Humidity 96%
Rainfall 0.16 in
Snow Depth Not available.
6:12 AM 7:40 PM
Waning Gibbous, 57% visible
METAR KDKB 241155Z AUTO 19008KT 4SM RA BKN006 OVC012 21/20 A3000 RMK AO2 LTG DSNT N S AND SW P0013 60013 70013 T02060201 10216 20202
Pressure 30.00 in
Visibility 4.0 miles
Clouds Mostly Cloudy 600 ft
Overcast 1200 ft
Dew Point 68 °F
Humidity 96%
Rainfall 0.16 in
Snow Depth Not available.
6:12 AM 7:40 PM
Waning Gibbous, 57% visible
METAR KDKB 241155Z AUTO 19008KT 4SM RA BKN006 OVC012 21/20 A3000 RMK AO2 LTG DSNT N S AND SW P0013 60013 70013 T02060201 10216 20202

10-Day Weather Forecast

Almanac

Astronomy

Aug. 24, 2016 Rise Set
Actual Time
Civil Twilight
Nautical Twilight
Astronomical Twilight
Moon
Length of Visible Light
Length of Day
Tomorrow will be .
, % of the Moon is Illuminated

Today's Extremes

State Highs State Lows

Community

WunderPhotos

Upload Photos

1,934,572 photos uploaded!

WunderBlog® & News

Nearby

Air Quality

  Air Quality AQ Index Pollutant
Not available.

Snow Depth

Station Depth Elevation

Earthquake Activity

City Distance Mag. Time & Date
Minimum magnitude displayed is 2.5.

Coastal Water Temperatures

Place Temperature

Stations

Nearby Weather Stations

Station Location Temp. Windchill Dew Point Humidity Wind Precip. Elev Updated Type
                   

Watches & Warnings

There are currently no watches in effect.